PWSweather.com
Personal Weather Stations
Station Observations
MASSAPEQUA
Massapequa, NY 11758

Massapequa, NY 11758

Lat: 40.66033, Lon: -73.46828

Elevation: 3

Station Type: Oregon Scientific WMR-968

http://www.massapequanyweather.com

High Low Average
Temperature 57.5°F14.2°C 42.6°F5.9°C 48.0°F8.9°C
Dew Point 35.8°F2.1°C 27.0°F-2.8°C 31.0°F-0.6°C
Winds 9.0 mph 14.5 kmh Calm Calm 5.0 mph NW8.0 kmh NW
Wind Gusts 14.0 mph22.5 kmh -- 6.0 mph9.7 kmh
Humidity 65% 43% 52%
Pressure 29.74 in1007.1 mb 29.68 in1005.1 mb -
Precipitation 0.00 in0.0 mm - -
Hour Temp Dew Point Humidity Winds Wind Gusts Pressure Precip Precip Rate Daily Precip Total
12:00 AM 45.7°F7.6°C 28.2°F-2.1°C 50% Calm Calm -- 29.68 in1005.1 mb 0.00 in0.0 mm 0.00 in/hr0.0 mm/hr 0.00 in0.0 mm
12:15 AM 45.1°F7.3°C 27.6°F-2.4°C 50% Calm Calm -- 29.71 in1006.1 mb 0.00 in0.0 mm 0.00 in/hr0.0 mm/hr 0.00 in0.0 mm
12:30 AM 44.2°F6.8°C 28.1°F-2.2°C 53% Calm Calm -- 29.71 in1006.1 mb 0.00 in0.0 mm 0.00 in/hr0.0 mm/hr 0.00 in0.0 mm
12:45 AM 43.2°F6.2°C 27.2°F-2.7°C 53% Calm Calm -- 29.71 in1006.1 mb 0.00 in0.0 mm 0.00 in/hr0.0 mm/hr 0.00 in0.0 mm
01:00 AM 43.0°F6.1°C 27.0°F-2.8°C 53% Calm Calm -- 29.71 in1006.1 mb 0.00 in0.0 mm 0.00 in/hr0.0 mm/hr 0.00 in0.0 mm
01:15 AM 42.6°F5.9°C 27.1°F-2.7°C 54% 2.0 mph W3.2 kmh W 2.0 mph3.2 kmh 29.74 in1007.1 mb 0.00 in0.0 mm 0.00 in/hr0.0 mm/hr 0.00 in0.0 mm
01:30 AM 43.2°F6.2°C 27.6°F-2.4°C 54% 3.0 mph W4.8 kmh W 3.0 mph4.8 kmh 29.74 in1007.1 mb 0.00 in0.0 mm 0.00 in/hr0.0 mm/hr 0.00 in0.0 mm
01:45 AM 43.5°F6.4°C 28.0°F-2.2°C 54% 2.0 mph W3.2 kmh W 3.0 mph4.8 kmh 29.74 in1007.1 mb 0.00 in0.0 mm 0.00 in/hr0.0 mm/hr 0.00 in0.0 mm
02:00 AM 43.7°F6.5°C 28.1°F-2.2°C 54% 2.0 mph WNW3.2 kmh WNW 3.0 mph4.8 kmh 29.74 in1007.1 mb 0.00 in0.0 mm 0.00 in/hr0.0 mm/hr 0.00 in0.0 mm
02:15 AM 43.7°F6.5°C 28.1°F-2.2°C 54% 2.0 mph W3.2 kmh W 3.0 mph4.8 kmh 29.74 in1007.1 mb 0.00 in0.0 mm 0.00 in/hr0.0 mm/hr 0.00 in0.0 mm
02:30 AM 43.3°F6.3°C 27.8°F-2.3°C 54% 3.0 mph NW4.8 kmh NW 3.0 mph4.8 kmh 29.74 in1007.1 mb 0.00 in0.0 mm 0.00 in/hr0.0 mm/hr 0.00 in0.0 mm
02:45 AM 43.4°F6.3°C 28.3°F-2.1°C 55% 3.0 mph NW4.8 kmh NW 3.0 mph4.8 kmh 29.74 in1007.1 mb 0.00 in0.0 mm 0.00 in/hr0.0 mm/hr 0.00 in0.0 mm
03:00 AM 43.2°F6.2°C 28.1°F-2.2°C 55% 3.0 mph NW4.8 kmh NW 3.0 mph4.8 kmh 29.74 in1007.1 mb 0.00 in0.0 mm 0.00 in/hr0.0 mm/hr 0.00 in0.0 mm
03:15 AM 43.5°F6.4°C 28.8°F-1.8°C 56% 3.0 mph NW4.8 kmh NW 3.0 mph4.8 kmh 29.74 in1007.1 mb 0.00 in0.0 mm 0.00 in/hr0.0 mm/hr 0.00 in0.0 mm
03:30 AM 43.2°F6.2°C 28.5°F-1.9°C 56% 3.0 mph NW4.8 kmh NW 3.0 mph4.8 kmh 29.74 in1007.1 mb 0.00 in0.0 mm 0.00 in/hr0.0 mm/hr 0.00 in0.0 mm
03:45 AM 42.6°F5.9°C 28.4°F-2.0°C 57% 3.0 mph NNW4.8 kmh NNW 3.0 mph4.8 kmh 29.74 in1007.1 mb 0.00 in0.0 mm 0.00 in/hr0.0 mm/hr 0.00 in0.0 mm
04:00 AM 42.6°F5.9°C 28.4°F-2.0°C 57% 3.0 mph NW4.8 kmh NW 3.0 mph4.8 kmh 29.74 in1007.1 mb 0.00 in0.0 mm 0.00 in/hr0.0 mm/hr 0.00 in0.0 mm
04:15 AM 43.3°F6.3°C 29.1°F-1.6°C 57% 3.0 mph NW4.8 kmh NW 3.0 mph4.8 kmh 29.74 in1007.1 mb 0.00 in0.0 mm 0.00 in/hr0.0 mm/hr 0.00 in0.0 mm
04:30 AM 44.2°F6.8°C 29.5°F-1.4°C 56% 5.0 mph NW8.0 kmh NW 6.0 mph9.7 kmh 29.74 in1007.1 mb 0.00 in0.0 mm 0.00 in/hr0.0 mm/hr 0.00 in0.0 mm
04:45 AM 44.8°F7.1°C 30.0°F-1.1°C 56% 5.0 mph NW8.0 kmh NW 6.0 mph9.7 kmh 29.74 in1007.1 mb 0.00 in0.0 mm 0.00 in/hr0.0 mm/hr 0.00 in0.0 mm
05:00 AM 45.1°F7.3°C 29.9°F-1.2°C 55% 3.0 mph N4.8 kmh N 5.0 mph8.0 kmh 29.74 in1007.1 mb 0.00 in0.0 mm 0.00 in/hr0.0 mm/hr 0.00 in0.0 mm
05:15 AM 44.8°F7.1°C 29.1°F-1.6°C 54% 3.0 mph N4.8 kmh N 6.0 mph9.7 kmh 29.74 in1007.1 mb 0.00 in0.0 mm 0.00 in/hr0.0 mm/hr 0.00 in0.0 mm
05:30 AM 44.4°F6.9°C 29.2°F-1.6°C 55% Calm Calm -- 29.74 in1007.1 mb 0.00 in0.0 mm 0.00 in/hr0.0 mm/hr 0.00 in0.0 mm
05:45 AM 43.8°F6.6°C 28.7°F-1.8°C 55% 3.0 mph NNW4.8 kmh NNW 5.0 mph8.0 kmh 29.74 in1007.1 mb 0.00 in0.0 mm 0.00 in/hr0.0 mm/hr 0.00 in0.0 mm
06:00 AM 43.9°F6.6°C 28.7°F-1.8°C 55% 3.0 mph N4.8 kmh N 6.0 mph9.7 kmh 29.74 in1007.1 mb 0.00 in0.0 mm 0.00 in/hr0.0 mm/hr 0.00 in0.0 mm
06:15 AM 44.4°F6.9°C 29.2°F-1.6°C 55% 3.0 mph NW4.8 kmh NW 3.0 mph4.8 kmh 29.74 in1007.1 mb 0.00 in0.0 mm 0.00 in/hr0.0 mm/hr 0.00 in0.0 mm
06:30 AM 46.2°F7.9°C 30.5°F-0.8°C 54% 5.0 mph NW8.0 kmh NW 8.0 mph12.9 kmh 29.74 in1007.1 mb 0.00 in0.0 mm 0.00 in/hr0.0 mm/hr 0.00 in0.0 mm
06:45 AM 47.1°F8.4°C 30.9°F-0.6°C 53% 6.0 mph NNW9.7 kmh NNW 6.0 mph9.7 kmh 29.74 in1007.1 mb 0.00 in0.0 mm 0.00 in/hr0.0 mm/hr 0.00 in0.0 mm
07:00 AM 46.9°F8.3°C 30.7°F-0.7°C 53% 6.0 mph NW9.7 kmh NW 8.0 mph12.9 kmh 29.74 in1007.1 mb 0.00 in0.0 mm 0.00 in/hr0.0 mm/hr 0.00 in0.0 mm
07:15 AM 46.6°F8.1°C 29.9°F-1.2°C 52% 7.0 mph NW11.3 kmh NW 7.0 mph11.3 kmh 29.74 in1007.1 mb 0.00 in0.0 mm 0.00 in/hr0.0 mm/hr 0.00 in0.0 mm
07:30 AM 46.8°F8.2°C 30.0°F-1.1°C 52% 7.0 mph NW11.3 kmh NW 8.0 mph12.9 kmh 29.74 in1007.1 mb 0.00 in0.0 mm 0.00 in/hr0.0 mm/hr 0.00 in0.0 mm
07:45 AM 47.1°F8.4°C 30.4°F-0.9°C 52% 8.0 mph NW12.9 kmh NW 9.0 mph14.5 kmh 29.74 in1007.1 mb 0.00 in0.0 mm 0.00 in/hr0.0 mm/hr 0.00 in0.0 mm
08:00 AM 47.5°F8.6°C 30.7°F-0.7°C 52% 6.0 mph NW9.7 kmh NW 8.0 mph12.9 kmh 29.74 in1007.1 mb 0.00 in0.0 mm 0.00 in/hr0.0 mm/hr 0.00 in0.0 mm
08:15 AM 46.9°F8.3°C 30.2°F-1.0°C 52% 9.0 mph NW14.5 kmh NW 9.0 mph14.5 kmh 29.74 in1007.1 mb 0.00 in0.0 mm 0.00 in/hr0.0 mm/hr 0.00 in0.0 mm
08:30 AM 45.7°F7.6°C 29.5°F-1.4°C 53% 9.0 mph NW14.5 kmh NW 10.0 mph16.1 kmh 29.74 in1007.1 mb 0.00 in0.0 mm 0.00 in/hr0.0 mm/hr 0.00 in0.0 mm
08:45 AM 45.5°F7.5°C 29.8°F-1.2°C 54% 7.0 mph NW11.3 kmh NW 6.0 mph9.7 kmh 29.74 in1007.1 mb 0.00 in0.0 mm 0.00 in/hr0.0 mm/hr 0.00 in0.0 mm
09:00 AM 45.1°F7.3°C 29.9°F-1.2°C 55% 8.0 mph NW12.9 kmh NW 8.0 mph12.9 kmh 29.74 in1007.1 mb 0.00 in0.0 mm 0.00 in/hr0.0 mm/hr 0.00 in0.0 mm
09:15 AM 44.1°F6.7°C 32.3°F0.2°C 63% 7.0 mph NW11.3 kmh NW 9.0 mph14.5 kmh 29.74 in1007.1 mb 0.00 in0.0 mm 0.00 in/hr0.0 mm/hr 0.00 in0.0 mm
09:30 AM 43.7°F6.5°C 32.3°F0.2°C 64% 5.0 mph NW8.0 kmh NW 9.0 mph14.5 kmh 29.74 in1007.1 mb 0.00 in0.0 mm 0.00 in/hr0.0 mm/hr 0.00 in0.0 mm
09:45 AM 43.7°F6.5°C 32.3°F0.2°C 64% 6.0 mph NW9.7 kmh NW 8.0 mph12.9 kmh 29.74 in1007.1 mb 0.00 in0.0 mm 0.00 in/hr0.0 mm/hr 0.00 in0.0 mm
10:00 AM 43.7°F6.5°C 32.7°F0.4°C 65% 6.0 mph NNW9.7 kmh NNW 8.0 mph12.9 kmh 29.74 in1007.1 mb 0.00 in0.0 mm 0.00 in/hr0.0 mm/hr 0.00 in0.0 mm
10:15 AM 44.5°F6.9°C 33.4°F0.8°C 65% 5.0 mph NNW8.0 kmh NNW 6.0 mph9.7 kmh 29.74 in1007.1 mb 0.00 in0.0 mm 0.00 in/hr0.0 mm/hr 0.00 in0.0 mm
10:30 AM 45.5°F7.5°C 33.6°F0.9°C 63% 3.0 mph N4.8 kmh N 6.0 mph9.7 kmh 29.74 in1007.1 mb 0.00 in0.0 mm 0.00 in/hr0.0 mm/hr 0.00 in0.0 mm
10:45 AM 45.9°F7.7°C 32.3°F0.2°C 59% 7.0 mph N11.3 kmh N 8.0 mph12.9 kmh 29.74 in1007.1 mb 0.00 in0.0 mm 0.00 in/hr0.0 mm/hr 0.00 in0.0 mm
11:00 AM 47.1°F8.4°C 33.1°F0.6°C 58% 6.0 mph N9.7 kmh N 8.0 mph12.9 kmh 29.74 in1007.1 mb 0.00 in0.0 mm 0.00 in/hr0.0 mm/hr 0.00 in0.0 mm
11:15 AM 48.5°F9.2°C 32.6°F0.3°C 54% 5.0 mph N8.0 kmh N 8.0 mph12.9 kmh 29.74 in1007.1 mb 0.00 in0.0 mm 0.00 in/hr0.0 mm/hr 0.00 in0.0 mm
11:30 AM 49.8°F9.9°C 32.8°F0.4°C 52% 7.0 mph NW11.3 kmh NW 14.0 mph22.5 kmh 29.74 in1007.1 mb 0.00 in0.0 mm 0.00 in/hr0.0 mm/hr 0.00 in0.0 mm
11:45 AM 50.9°F10.5°C 33.4°F0.8°C 51% 5.0 mph NNW8.0 kmh NNW 8.0 mph12.9 kmh 29.74 in1007.1 mb 0.00 in0.0 mm 0.00 in/hr0.0 mm/hr 0.00 in0.0 mm
12:00 PM 50.2°F10.1°C 32.7°F0.4°C 51% 7.0 mph NW11.3 kmh NW 8.0 mph12.9 kmh 29.74 in1007.1 mb 0.00 in0.0 mm 0.00 in/hr0.0 mm/hr 0.00 in0.0 mm
12:15 PM 51.9°F11.1°C 34.3°F1.3°C 51% 5.0 mph N8.0 kmh N 5.0 mph8.0 kmh 29.74 in1007.1 mb 0.00 in0.0 mm 0.00 in/hr0.0 mm/hr 0.00 in0.0 mm
12:30 PM 54.5°F12.5°C 35.2°F1.8°C 48% 7.0 mph NNW11.3 kmh NNW 6.0 mph9.7 kmh 29.74 in1007.1 mb 0.00 in0.0 mm 0.00 in/hr0.0 mm/hr 0.00 in0.0 mm
12:45 PM 54.6°F12.6°C 35.3°F1.8°C 48% 6.0 mph NW9.7 kmh NW 10.0 mph16.1 kmh 29.74 in1007.1 mb 0.00 in0.0 mm 0.00 in/hr0.0 mm/hr 0.00 in0.0 mm
01:00 PM 53.1°F11.7°C 33.9°F1.1°C 48% 7.0 mph NNW11.3 kmh NNW 8.0 mph12.9 kmh 29.74 in1007.1 mb 0.00 in0.0 mm 0.00 in/hr0.0 mm/hr 0.00 in0.0 mm
01:15 PM 54.0°F12.2°C 34.7°F1.5°C 48% 5.0 mph NW8.0 kmh NW 8.0 mph12.9 kmh 29.74 in1007.1 mb 0.00 in0.0 mm 0.00 in/hr0.0 mm/hr 0.00 in0.0 mm
01:30 PM 52.2°F11.2°C 33.1°F0.6°C 48% 3.0 mph N4.8 kmh N 6.0 mph9.7 kmh 29.74 in1007.1 mb 0.00 in0.0 mm 0.00 in/hr0.0 mm/hr 0.00 in0.0 mm
01:45 PM 54.5°F12.5°C 34.7°F1.5°C 47% 6.0 mph NW9.7 kmh NW 10.0 mph16.1 kmh 29.74 in1007.1 mb 0.00 in0.0 mm 0.00 in/hr0.0 mm/hr 0.00 in0.0 mm
02:00 PM 54.8°F12.7°C 33.8°F1.0°C 45% 5.0 mph NW8.0 kmh NW 8.0 mph12.9 kmh 29.74 in1007.1 mb 0.00 in0.0 mm 0.00 in/hr0.0 mm/hr 0.00 in0.0 mm
02:15 PM 55.1°F12.8°C 34.2°F1.2°C 45% 9.0 mph NW14.5 kmh NW 13.0 mph20.9 kmh 29.74 in1007.1 mb 0.00 in0.0 mm 0.00 in/hr0.0 mm/hr 0.00 in0.0 mm
02:30 PM 53.2°F11.8°C 33.0°F0.6°C 46% 7.0 mph NW11.3 kmh NW 10.0 mph16.1 kmh 29.74 in1007.1 mb 0.00 in0.0 mm 0.00 in/hr0.0 mm/hr 0.00 in0.0 mm
02:45 PM 54.1°F12.3°C 33.2°F0.7°C 45% 7.0 mph NW11.3 kmh NW 12.0 mph19.3 kmh 29.74 in1007.1 mb 0.00 in0.0 mm 0.00 in/hr0.0 mm/hr 0.00 in0.0 mm
03:00 PM 57.5°F14.2°C 35.8°F2.1°C 44% 6.0 mph NW9.7 kmh NW 10.0 mph16.1 kmh 29.74 in1007.1 mb 0.00 in0.0 mm 0.00 in/hr0.0 mm/hr 0.00 in0.0 mm
03:15 PM 56.0°F13.3°C 35.0°F1.7°C 45% 8.0 mph NNW12.9 kmh NNW 9.0 mph14.5 kmh 29.74 in1007.1 mb 0.00 in0.0 mm 0.00 in/hr0.0 mm/hr 0.00 in0.0 mm
03:30 PM 54.1°F12.3°C 33.2°F0.7°C 45% 5.0 mph NW8.0 kmh NW 6.0 mph9.7 kmh 29.74 in1007.1 mb 0.00 in0.0 mm 0.00 in/hr0.0 mm/hr 0.00 in0.0 mm
03:45 PM 54.9°F12.7°C 32.8°F0.4°C 43% 6.0 mph NW9.7 kmh NW 7.0 mph11.3 kmh 29.74 in1007.1 mb 0.00 in0.0 mm 0.00 in/hr0.0 mm/hr 0.00 in0.0 mm
04:00 PM 53.8°F12.1°C 31.8°F-0.1°C 43% 7.0 mph NW11.3 kmh NW 6.0 mph9.7 kmh 29.74 in1007.1 mb 0.00 in0.0 mm 0.00 in/hr0.0 mm/hr 0.00 in0.0 mm
04:15 PM 53.1°F11.7°C 32.3°F0.2°C 45% 3.0 mph NW4.8 kmh NW 6.0 mph9.7 kmh 29.74 in1007.1 mb 0.00 in0.0 mm 0.00 in/hr0.0 mm/hr 0.00 in0.0 mm
04:30 PM 53.1°F11.7°C 32.8°F0.4°C 46% 6.0 mph NW9.7 kmh NW 8.0 mph12.9 kmh 29.74 in1007.1 mb 0.00 in0.0 mm 0.00 in/hr0.0 mm/hr 0.00 in0.0 mm
04:45 PM 52.8°F11.6°C 32.6°F0.3°C 46% 5.0 mph NW8.0 kmh NW 6.0 mph9.7 kmh 29.74 in1007.1 mb 0.00 in0.0 mm 0.00 in/hr0.0 mm/hr 0.00 in0.0 mm
05:00 PM 53.8°F12.1°C 32.9°F0.5°C 45% 6.0 mph NW9.7 kmh NW 6.0 mph9.7 kmh 29.74 in1007.1 mb 0.00 in0.0 mm 0.00 in/hr0.0 mm/hr 0.00 in0.0 mm
05:15 PM 53.1°F11.7°C 32.8°F0.4°C 46% 7.0 mph NW11.3 kmh NW 9.0 mph14.5 kmh 29.74 in1007.1 mb 0.00 in0.0 mm 0.00 in/hr0.0 mm/hr 0.00 in0.0 mm
05:30 PM 52.0°F11.1°C 31.8°F-0.1°C 46% 3.0 mph NW4.8 kmh NW 6.0 mph9.7 kmh 29.74 in1007.1 mb 0.00 in0.0 mm 0.00 in/hr0.0 mm/hr 0.00 in0.0 mm
05:45 PM 52.3°F11.3°C 32.2°F0.1°C 46% 6.0 mph NW9.7 kmh NW 8.0 mph12.9 kmh 29.74 in1007.1 mb 0.00 in0.0 mm 0.00 in/hr0.0 mm/hr 0.00 in0.0 mm
06:00 PM 52.0°F11.1°C 30.2°F-1.0°C 43% 6.0 mph NW9.7 kmh NW 6.0 mph9.7 kmh 29.74 in1007.1 mb 0.00 in0.0 mm 0.00 in/hr0.0 mm/hr 0.00 in0.0 mm
06:15 PM 51.8°F11.0°C 30.0°F-1.1°C 43% 5.0 mph NW8.0 kmh NW 6.0 mph9.7 kmh 29.74 in1007.1 mb 0.00 in0.0 mm 0.00 in/hr0.0 mm/hr 0.00 in0.0 mm
06:30 PM 51.4°F10.8°C 31.3°F-0.4°C 46% 5.0 mph NW8.0 kmh NW 3.0 mph4.8 kmh 29.74 in1007.1 mb 0.00 in0.0 mm 0.00 in/hr0.0 mm/hr 0.00 in0.0 mm
06:45 PM 51.4°F10.8°C 30.8°F-0.7°C 45% 6.0 mph NW9.7 kmh NW 9.0 mph14.5 kmh 29.74 in1007.1 mb 0.00 in0.0 mm 0.00 in/hr0.0 mm/hr 0.00 in0.0 mm
07:00 PM 51.3°F10.7°C 31.2°F-0.4°C 46% 5.0 mph NW8.0 kmh NW 6.0 mph9.7 kmh 29.74 in1007.1 mb 0.00 in0.0 mm 0.00 in/hr0.0 mm/hr 0.00 in0.0 mm
07:15 PM 51.3°F10.7°C 31.2°F-0.4°C 46% 5.0 mph NW8.0 kmh NW 6.0 mph9.7 kmh 29.74 in1007.1 mb 0.00 in0.0 mm 0.00 in/hr0.0 mm/hr 0.00 in0.0 mm
07:30 PM 51.3°F10.7°C 30.6°F-0.8°C 45% 5.0 mph NW8.0 kmh NW 6.0 mph9.7 kmh 29.74 in1007.1 mb 0.00 in0.0 mm 0.00 in/hr0.0 mm/hr 0.00 in0.0 mm
07:45 PM 51.4°F10.8°C 30.2°F-1.0°C 44% 6.0 mph NW9.7 kmh NW 6.0 mph9.7 kmh 29.74 in1007.1 mb 0.00 in0.0 mm 0.00 in/hr0.0 mm/hr 0.00 in0.0 mm
08:00 PM 51.4°F10.8°C 31.3°F-0.4°C 46% 6.0 mph NW9.7 kmh NW 8.0 mph12.9 kmh 29.74 in1007.1 mb 0.00 in0.0 mm 0.00 in/hr0.0 mm/hr 0.00 in0.0 mm
08:15 PM 51.1°F10.6°C 31.0°F-0.6°C 46% 5.0 mph NW8.0 kmh NW 8.0 mph12.9 kmh 29.74 in1007.1 mb 0.00 in0.0 mm 0.00 in/hr0.0 mm/hr 0.00 in0.0 mm
08:30 PM 50.9°F10.5°C 30.8°F-0.7°C 46% 3.0 mph NNW4.8 kmh NNW 6.0 mph9.7 kmh 29.74 in1007.1 mb 0.00 in0.0 mm 0.00 in/hr0.0 mm/hr 0.00 in0.0 mm
08:45 PM 50.5°F10.3°C 30.5°F-0.8°C 46% 7.0 mph NW11.3 kmh NW 9.0 mph14.5 kmh 29.74 in1007.1 mb 0.00 in0.0 mm 0.00 in/hr0.0 mm/hr 0.00 in0.0 mm
09:00 PM 50.4°F10.2°C 30.3°F-0.9°C 46% 7.0 mph NW11.3 kmh NW 12.0 mph19.3 kmh 29.74 in1007.1 mb 0.00 in0.0 mm 0.00 in/hr0.0 mm/hr 0.00 in0.0 mm
09:15 PM 50.7°F10.4°C 30.7°F-0.7°C 46% 7.0 mph WNW11.3 kmh WNW 8.0 mph12.9 kmh 29.74 in1007.1 mb 0.00 in0.0 mm 0.00 in/hr0.0 mm/hr 0.00 in0.0 mm
09:30 PM 50.7°F10.4°C 30.7°F-0.7°C 46% 7.0 mph NW11.3 kmh NW 8.0 mph12.9 kmh 29.74 in1007.1 mb 0.00 in0.0 mm 0.00 in/hr0.0 mm/hr 0.00 in0.0 mm
09:45 PM 50.5°F10.3°C 30.5°F-0.8°C 46% 6.0 mph NW9.7 kmh NW 9.0 mph14.5 kmh 29.74 in1007.1 mb 0.00 in0.0 mm 0.00 in/hr0.0 mm/hr 0.00 in0.0 mm
10:00 PM 49.7°F9.8°C 29.8°F-1.2°C 46% 6.0 mph N9.7 kmh N 8.0 mph12.9 kmh 29.74 in1007.1 mb 0.00 in0.0 mm 0.00 in/hr0.0 mm/hr 0.00 in0.0 mm
10:15 PM 48.9°F9.4°C 31.6°F-0.2°C 51% 5.0 mph N8.0 kmh N 8.0 mph12.9 kmh 29.74 in1007.1 mb 0.00 in0.0 mm 0.00 in/hr0.0 mm/hr 0.00 in0.0 mm
10:30 PM 48.6°F9.2°C 31.2°F-0.4°C 51% 5.0 mph N8.0 kmh N 6.0 mph9.7 kmh 29.74 in1007.1 mb 0.00 in0.0 mm 0.00 in/hr0.0 mm/hr 0.00 in0.0 mm
10:45 PM 48.4°F9.1°C 31.5°F-0.3°C 52% 5.0 mph N8.0 kmh N 8.0 mph12.9 kmh 29.74 in1007.1 mb 0.00 in0.0 mm 0.00 in/hr0.0 mm/hr 0.00 in0.0 mm
11:00 PM 48.2°F9.0°C 31.4°F-0.3°C 52% 5.0 mph NW8.0 kmh NW 5.0 mph8.0 kmh 29.74 in1007.1 mb 0.00 in0.0 mm 0.00 in/hr0.0 mm/hr 0.00 in0.0 mm
11:15 PM 48.2°F9.0°C 31.4°F-0.3°C 52% 2.0 mph NW3.2 kmh NW 3.0 mph4.8 kmh 29.74 in1007.1 mb 0.00 in0.0 mm 0.00 in/hr0.0 mm/hr 0.00 in0.0 mm
11:30 PM 48.2°F9.0°C 31.4°F-0.3°C 52% 2.0 mph NW3.2 kmh NW 3.0 mph4.8 kmh 29.74 in1007.1 mb 0.00 in0.0 mm 0.00 in/hr0.0 mm/hr 0.00 in0.0 mm
11:45 PM 48.2°F9.0°C 31.4°F-0.3°C 52% 3.0 mph NW4.8 kmh NW 5.0 mph8.0 kmh 29.74 in1007.1 mb 0.00 in0.0 mm 0.00 in/hr0.0 mm/hr 0.00 in0.0 mm